Time;durP1;ratioP1;P1;durP2;ratioP2;P2;SDS_P1;SDS_P2;PMS_P1;PMS_P2;Temp;Humidity;BMP_temperature;BMP_pressure;BME280_temperature;BME280_humidity;BME280_pressure;Samples;Min_cycle;Max_cycle;Signal;HPM_P1;HPM_P2
2022/01/18 00:01:29;;;;;;;37.50;8.15;;;;;;;4.68;100.00;103813.00;5094182;28;20028;-37
2022/01/18 00:03:55;;;;;;;28.45;8.35;;;;;;;4.77;100.00;103820.31;5094750;28;20043;-36
2022/01/18 00:06:20;;;;;;;36.65;8.15;;;;;;;4.74;100.00;103817.91;5094075;28;20020;-37
2022/01/18 00:08:46;;;;;;;39.37;10.57;;;;;;;4.82;100.00;103834.22;5092608;28;20463;-37
2022/01/18 00:11:12;;;;;;;30.63;8.05;;;;;;;4.86;100.00;103826.78;5093936;28;20050;-37
2022/01/18 00:13:44;;;;;;;32.23;7.53;;;;;;;4.83;100.00;103827.91;5094183;28;20024;-37
2022/01/18 00:16:26;;;;;;;35.40;8.30;;;;;;;4.80;100.00;103832.66;5093756;28;20070;-37
2022/01/18 00:18:53;;;;;;;28.77;7.57;;;;;;;4.91;100.00;103829.97;5094315;28;20024;-37
2022/01/18 00:21:36;;;;;;;26.35;6.95;;;;;;;4.95;100.00;103815.34;5093446;28;20028;-37
2022/01/18 00:24:03;;;;;;;27.77;7.20;;;;;;;4.89;100.00;103822.06;5094419;28;20171;-37
2022/01/18 00:26:31;;;;;;;27.02;7.07;;;;;;;4.96;100.00;103825.09;5093360;28;20059;-37
2022/01/18 00:29:03;;;;;;;27.15;6.85;;;;;;;5.02;100.00;103834.47;5093492;28;20024;-36
2022/01/18 00:36:56;;;;;;;23.63;6.63;;;;;;;5.13;100.00;103840.72;5093461;28;20040;-37
2022/01/18 00:39:21;;;;;;;36.67;8.60;;;;;;;5.09;100.00;103841.94;5093860;28;20020;-37
2022/01/18 00:41:47;;;;;;;30.03;8.43;;;;;;;5.01;100.00;103838.13;5093986;28;20042;-37
2022/01/18 00:44:14;;;;;;;30.02;7.13;;;;;;;5.10;100.00;103849.00;5093395;28;20068;-37
2022/01/18 00:46:40;;;;;;;34.53;7.63;;;;;;;5.10;100.00;103854.34;5093349;28;20093;-37
2022/01/18 00:49:05;;;;;;;29.90;7.50;;;;;;;5.07;100.00;103853.75;5093570;28;20031;-37
2022/01/18 00:51:37;;;;;;;31.08;8.65;;;;;;;5.04;100.00;103862.03;5093408;28;20464;-37
2022/01/18 00:54:03;;;;;;;32.97;7.75;;;;;;;5.07;100.00;103872.50;5093635;28;20475;-37
2022/01/18 00:56:31;;;;;;;40.28;8.55;;;;;;;5.04;100.00;103875.47;5093459;28;20107;-37
2022/01/18 00:58:58;;;;;;;30.83;7.88;;;;;;;5.06;100.00;103881.53;5093328;28;20120;-37
2022/01/18 01:01:28;;;;;;;31.50;9.05;;;;;;;4.87;100.00;103845.44;5093468;28;20032;-37
2022/01/18 01:03:58;;;;;;;28.95;8.18;;;;;;;5.07;100.00;103864.47;5093122;28;20032;-37
2022/01/18 01:06:24;;;;;;;36.58;8.98;;;;;;;5.08;100.00;103876.94;5092993;28;20039;-37
2022/01/18 01:08:50;;;;;;;31.05;9.30;;;;;;;5.03;100.00;103863.88;5093034;28;20029;-37
2022/01/18 01:11:16;;;;;;;;;;;;;;;5.15;100.00;103870.09;5093767;28;20028;-37
2022/01/18 01:13:45;;;;;;;41.28;10.20;;;;;;;5.07;100.00;103865.31;5092635;28;20010;-37
2022/01/18 01:34:57;;;;;;;35.17;8.18;;;;;;;5.08;100.00;103844.75;5092754;28;20036;-37
2022/01/18 01:45:23;;;;;;;33.03;9.27;;;;;;;5.13;100.00;103842.53;5092950;28;20092;-36
2022/01/18 01:47:51;;;;;;;34.58;9.90;;;;;;;5.14;100.00;103846.94;5092491;28;20369;-36
2022/01/18 01:50:19;;;;;;;29.00;9.10;;;;;;;5.13;100.00;103847.91;5093079;28;20032;-37
2022/01/18 01:52:46;;;;;;;35.63;10.10;;;;;;;5.04;100.00;103837.91;5093465;28;20092;-37
2022/01/18 01:55:12;;;;;;;34.65;10.13;;;;;;;5.13;100.00;103848.75;5092721;28;20449;-37
2022/01/18 01:57:38;;;;;;;33.28;9.85;;;;;;;5.15;100.00;103845.94;5092493;28;20028;-37
2022/01/18 02:06:34;;;;;;;30.88;10.45;;;;;;;5.09;100.00;103843.75;5049806;28;20032;-36
2022/01/18 02:08:59;;;;;;;35.17;10.10;;;;;;;5.09;100.00;103846.44;5049799;28;20049;-37
2022/01/18 02:11:24;;;;;;;32.57;10.13;;;;;;;5.10;100.00;103856.19;5050234;28;20032;-37
2022/01/18 02:13:50;;;;;;;38.40;11.00;;;;;;;5.09;100.00;103863.38;5050024;28;20037;-37
2022/01/18 02:21:46;;;;;;;36.60;10.85;;;;;;;5.04;100.00;103864.72;5053309;28;20071;-37
2022/01/18 02:24:12;;;;;;;30.00;10.05;;;;;;;4.96;100.00;103846.53;5053528;28;20370;-37
2022/01/18 02:26:38;;;;;;;35.05;11.50;;;;;;;4.96;100.00;103851.06;5053247;28;20087;-37
2022/01/18 02:29:05;;;;;;;39.90;11.43;;;;;;;5.02;100.00;103861.28;5053525;28;20180;-37
2022/01/18 02:31:31;;;;;;;31.92;10.80;;;;;;;5.02;100.00;103856.78;5053173;28;20037;-37
2022/01/18 02:34:23;;;;;;;37.97;11.00;;;;;;;5.04;100.00;103854.84;5053796;28;20060;-37
2022/01/18 02:36:50;;;;;;;35.45;11.23;;;;;;;4.99;100.00;103861.56;5052000;28;20204;-37
2022/01/18 02:39:21;;;;;;;32.97;9.18;;;;;;;5.07;100.00;103854.59;5062136;28;20035;-37
2022/01/18 02:42:01;;;;;;;38.70;12.15;;;;;;;4.94;100.00;103843.16;5095246;28;20031;-37
2022/01/18 02:44:28;;;;;;;38.53;10.93;;;;;;;4.99;100.00;103854.38;5095499;28;20024;-37
2022/01/18 02:46:53;;;;;;;27.70;10.05;;;;;;;5.07;100.00;103843.84;5096005;28;20036;-37
2022/01/18 02:49:19;;;;;;;31.47;11.17;;;;;;;5.06;100.00;103852.03;5095728;28;20028;-37
2022/01/18 02:51:45;;;;;;;32.72;11.48;;;;;;;5.00;100.00;103842.66;5095485;28;20028;-37
2022/01/18 02:54:13;;;;;;;37.03;10.63;;;;;;;5.03;100.00;103842.41;5095873;28;20036;-36
2022/01/18 02:56:46;;;;;;;39.88;11.85;;;;;;;5.03;100.00;103838.88;5095323;28;20032;-37
2022/01/18 02:59:29;;;;;;;41.78;12.25;;;;;;;5.01;100.00;103844.34;5096007;28;20198;-37
2022/01/18 03:04:40;;;;;;;38.53;11.07;;;;;;;4.98;100.00;103830.31;5094961;28;20463;-37
2022/01/18 03:07:05;;;;;;;39.33;10.57;;;;;;;5.10;100.00;103848.16;5095112;28;20032;-37
2022/01/18 03:09:31;;;;;;;37.13;11.60;;;;;;;4.94;100.00;103823.53;5095582;28;20116;-37
2022/01/18 03:11:56;;;;;;;31.83;10.60;;;;;;;5.07;100.00;103838.50;5095197;28;20028;-37
2022/01/18 03:14:22;;;;;;;42.30;11.37;;;;;;;5.07;100.00;103835.81;5095074;28;20379;-37
2022/01/18 03:16:47;;;;;;;33.33;11.33;;;;;;;5.08;100.00;103844.75;5094679;28;20396;-37
2022/01/18 03:19:12;;;;;;;36.07;11.33;;;;;;;5.12;100.00;103852.44;5094988;28;20431;-37
2022/01/18 03:21:38;;;;;;;39.08;11.93;;;;;;;5.09;100.00;103854.50;5094970;28;20518;-37
2022/01/18 03:24:14;;;;;;;40.92;12.20;;;;;;;5.11;100.00;103847.16;5094502;28;20035;-37
2022/01/18 03:29:24;;;;;;;36.22;11.15;;;;;;;5.06;100.00;103849.34;5094745;28;20062;-36
2022/01/18 03:31:49;;;;;;;40.07;13.67;;;;;;;5.09;100.00;103862.53;5093968;28;20024;-36
2022/01/18 03:34:14;;;;;;;26.53;10.27;;;;;;;5.15;100.00;103862.03;5094547;28;20032;-37
2022/01/18 03:36:40;;;;;;;35.30;12.67;;;;;;;5.10;100.00;103858.88;5094548;28;20107;-37
2022/01/18 03:39:06;;;;;;;37.97;12.53;;;;;;;5.04;100.00;103852.16;5094821;28;20107;-37
2022/01/18 03:41:31;;;;;;;37.75;12.45;;;;;;;5.09;100.00;103862.53;5094022;28;20049;-37
2022/01/18 03:43:56;;;;;;;41.73;13.47;;;;;;;5.04;100.00;103845.94;5094617;28;20028;-37
2022/01/18 03:46:24;;;;;;;38.97;12.87;;;;;;;5.09;100.00;103859.84;5094120;28;20106;-37
2022/01/18 03:48:51;;;;;;;42.53;12.98;;;;;;;5.07;100.00;103865.31;5094887;28;20020;-37
2022/01/18 03:51:16;;;;;;;33.35;13.02;;;;;;;5.06;100.00;103868.97;5094234;28;20028;-37
2022/01/18 03:53:41;;;;;;;45.73;13.87;;;;;;;4.89;100.00;103843.50;5094258;28;20365;-37
2022/01/18 03:56:07;;;;;;;37.23;13.23;;;;;;;5.04;100.00;103867.41;5094373;28;20034;-37
2022/01/18 03:58:34;;;;;;;39.47;13.53;;;;;;;5.04;100.00;103872.78;5094087;28;20415;-37
2022/01/18 04:01:00;;;;;;;46.67;14.30;;;;;;;4.96;100.00;103856.41;5094152;28;20278;-37
2022/01/18 04:03:26;;;;;;;33.35;13.15;;;;;;;5.02;100.00;103875.56;5094296;28;20127;-37
2022/01/18 04:05:52;;;;;;;42.80;13.73;;;;;;;4.90;100.00;103866.66;5094052;28;20031;-36
2022/01/18 04:08:21;;;;;;;37.65;13.00;;;;;;;5.00;100.00;103882.88;5094162;28;20035;-37
2022/01/18 04:10:47;;;;;;;41.88;14.32;;;;;;;4.91;100.00;103873.72;5094040;28;20024;-37
2022/01/18 04:13:12;;;;;;;35.93;12.37;;;;;;;4.99;100.00;103886.53;5093700;28;20488;-37
2022/01/18 04:15:37;;;;;;;37.43;13.20;;;;;;;4.93;100.00;103876.31;5093913;28;20494;-37
2022/01/18 04:28:42;;;;;;;26.27;11.50;;;;;;;4.84;100.00;103875.19;5093639;28;20079;-37
2022/01/18 04:31:09;;;;;;;24.98;12.13;;;;;;;4.88;100.00;103886.50;5094113;28;20407;-36
2022/01/18 04:33:35;;;;;;;;;;;;;;;5.01;100.00;103889.94;5093881;28;20115;-37
2022/01/18 04:36:01;;;;;;;25.75;11.40;;;;;;;4.86;100.00;103873.22;5094230;28;19916;-37
2022/01/18 04:38:27;;;;;;;28.85;12.77;;;;;;;4.91;100.00;103891.63;5093429;28;20352;-37
2022/01/18 04:40:53;;;;;;;28.23;11.65;;;;;;;4.95;100.00;103897.63;5093794;28;20123;-37
2022/01/18 04:48:35;;;;;;;29.02;11.70;;;;;;;4.88;100.00;103890.06;5093581;28;20452;-37
2022/01/18 04:51:07;;;;;;;29.15;11.52;;;;;;;4.87;100.00;103891.00;5093418;28;20487;-37
2022/01/18 04:53:34;;;;;;;32.33;13.15;;;;;;;4.79;100.00;103896.13;5093136;28;20024;-37
2022/01/18 04:56:05;;;;;;;28.98;10.38;;;;;;;4.88;100.00;103891.88;5093338;28;20422;-37
2022/01/18 04:58:30;;;;;;;34.40;12.00;;;;;;;4.77;100.00;103890.03;5093355;28;20106;-37
2022/01/18 05:00:59;;;;;;;32.10;13.33;;;;;;;4.82;100.00;103897.72;5093003;28;20460;-36
2022/01/18 05:03:26;;;;;;;31.23;12.88;;;;;;;4.83;100.00;103897.63;5093018;28;20432;-37
2022/01/18 05:05:54;;;;;;;39.03;12.95;;;;;;;4.58;100.00;103863.78;5093288;28;20028;-37
2022/01/18 05:08:20;;;;;;;33.53;12.95;;;;;;;4.81;100.00;103912.94;5092702;28;20345;-37
2022/01/18 05:10:51;;;;;;;29.93;12.03;;;;;;;4.81;100.00;103912.09;5092692;28;20039;-37
2022/01/18 05:13:39;;;;;;;31.95;11.45;;;;;;;4.81;100.00;103912.09;5093400;28;20032;-37
2022/01/18 05:21:21;;;;;;;24.55;11.30;;;;;;;4.78;100.00;103909.63;5093079;28;20032;-37
2022/01/18 05:23:46;;;;;;;27.90;11.63;;;;;;;4.78;100.00;103912.31;5092886;28;20093;-36
2022/01/18 05:26:11;;;;;;;36.67;12.47;;;;;;;4.70;100.00;103893.31;5093357;28;20040;-36
2022/01/18 05:28:37;;;;;;;32.13;12.57;;;;;;;4.77;100.00;103907.94;5092854;28;20103;-36
2022/01/18 05:31:02;;;;;;;34.47;12.97;;;;;;;4.75;100.00;103917.94;5093030;28;20028;-37
2022/01/18 05:33:27;;;;;;;29.43;12.97;;;;;;;4.77;100.00;103910.63;5092989;28;20115;-37
2022/01/18 05:35:54;;;;;;;33.50;12.33;;;;;;;4.63;100.00;103891.06;5092794;28;20024;-37
2022/01/18 05:38:19;;;;;;;29.48;12.45;;;;;;;4.75;100.00;103905.38;5092431;28;20028;-37
2022/01/18 05:40:45;;;;;;;42.28;13.57;;;;;;;4.77;100.00;103907.94;5092889;28;20024;-36
2022/01/18 05:43:10;;;;;;;33.13;11.67;;;;;;;4.76;100.00;103903.56;5092401;28;20131;-37
2022/01/18 05:45:36;;;;;;;39.27;13.40;;;;;;;4.78;100.00;103898.91;5093649;28;20024;-37
2022/01/18 05:48:01;;;;;;;35.83;12.97;;;;;;;4.76;100.00;103895.50;5091101;28;20097;-37
2022/01/18 05:50:26;;;;;;;35.80;13.87;;;;;;;4.74;100.00;103898.31;5092614;28;20540;-36
2022/01/18 05:52:52;;;;;;;35.20;13.80;;;;;;;4.61;100.00;103893.03;5092310;28;20546;-37
2022/01/18 05:55:17;;;;;;;33.37;12.73;;;;;;;4.73;100.00;103903.78;5096523;28;20032;-37
2022/01/18 05:57:43;;;;;;;34.33;12.35;;;;;;;4.76;100.00;103892.84;5096186;28;20070;-37
2022/01/18 06:00:18;;;;;;;38.20;14.83;;;;;;;4.73;100.00;103896.59;5095371;28;20036;-37
2022/01/18 06:02:58;;;;;;;33.97;13.13;;;;;;;4.74;100.00;103895.66;5096265;28;20040;-37
2022/01/18 06:08:08;;;;;;;36.42;12.98;;;;;;;4.61;100.00;103878.78;5096686;28;20545;-36
2022/01/18 06:10:34;;;;;;;31.13;12.88;;;;;;;4.54;100.00;103880.22;5096592;28;20032;-37
2022/01/18 06:13:02;;;;;;;28.10;12.68;;;;;;;4.67;100.00;103893.53;5096252;28;20024;-37
2022/01/18 06:15:28;;;;;;;36.53;13.73;;;;;;;4.59;100.00;103886.09;5096246;28;20036;-37
2022/01/18 06:17:53;;;;;;;37.63;12.75;;;;;;;4.65;100.00;103899.03;5096129;28;20130;-37
2022/01/18 06:20:18;;;;;;;35.13;13.27;;;;;;;4.58;100.00;103897.78;5096363;28;20119;-37
2022/01/18 06:22:44;;;;;;;34.53;14.40;;;;;;;4.66;100.00;103911.44;5096377;28;20474;-37
2022/01/18 06:25:10;;;;;;;36.58;13.80;;;;;;;4.63;100.00;103911.66;5095793;28;20064;-37
2022/01/18 06:27:35;;;;;;;35.47;13.60;;;;;;;4.63;100.00;103909.84;5095804;28;20102;-37
2022/01/18 06:30:01;;;;;;;42.93;14.67;;;;;;;4.61;100.00;103900.22;5095975;28;20028;-36
2022/01/18 06:32:26;;;;;;;42.53;14.90;;;;;;;4.54;100.00;103882.88;5095854;28;20093;-37
2022/01/18 06:34:52;;;;;;;33.97;12.27;;;;;;;4.56;100.00;103884.50;5095909;28;20024;-37
2022/01/18 06:37:19;;;;;;;34.25;13.48;;;;;;;4.59;100.00;103883.41;5096546;28;20403;-37
2022/01/18 06:39:44;;;;;;;;;;;;;;;4.76;100.00;103899.03;5096266;28;20073;-37
2022/01/18 06:42:14;;;;;;;28.98;11.75;;;;;;;4.56;100.00;103862.19;5095674;28;19912;-37
2022/01/18 06:44:40;;;;;;;40.25;13.57;;;;;;;4.61;100.00;103885.00;5095574;28;20085;-37
2022/01/18 06:47:06;;;;;;;38.45;13.80;;;;;;;4.70;100.00;103896.84;5095932;28;20032;-37
2022/01/18 06:49:31;;;;;;;56.33;16.30;;;;;;;4.44;100.00;103860.44;5095579;28;20111;-37
2022/01/18 06:51:56;;;;;;;54.83;16.20;;;;;;;4.63;100.00;103895.59;5096430;28;20073;-37
2022/01/18 06:54:22;;;;;;;60.60;16.93;;;;;;;4.59;100.00;103891.47;5095120;28;20016;-37
2022/01/18 06:56:49;;;;;;;57.57;17.43;;;;;;;4.57;100.00;103883.50;5095332;28;20020;-37
2022/01/18 06:59:16;;;;;;;56.20;16.50;;;;;;;4.67;100.00;103905.09;5095131;28;20024;-37
2022/01/18 07:01:42;;;;;;;51.80;14.60;;;;;;;4.56;100.00;103897.03;5095114;28;20024;-37
2022/01/18 07:04:07;;;;;;;51.50;13.15;;;;;;;4.57;100.00;103914.81;5094709;28;20090;-37
2022/01/18 07:06:33;;;;;;;54.77;14.40;;;;;;;4.58;100.00;103921.88;5093395;28;20035;-37
2022/01/18 07:08:59;;;;;;;51.70;14.48;;;;;;;4.51;100.00;103907.25;5095310;28;20028;-37
2022/01/18 07:11:24;;;;;;;50.80;13.98;;;;;;;4.57;100.00;103917.50;5095280;28;20093;-37
2022/01/18 07:13:49;;;;;;;62.37;14.47;;;;;;;4.51;100.00;103913.47;5095258;28;20028;-37
2022/01/18 07:16:15;;;;;;;60.30;15.07;;;;;;;4.45;100.00;103915.78;5094628;28;20115;-37
2022/01/18 07:18:40;;;;;;;42.87;13.33;;;;;;;4.39;100.00;103895.63;5095265;28;20118;-36
2022/01/18 07:21:06;;;;;;;49.92;13.93;;;;;;;4.45;100.00;103913.09;5094638;28;20024;-37
2022/01/18 07:23:31;;;;;;;61.53;14.27;;;;;;;4.36;100.00;103899.41;5095442;28;20044;-37
2022/01/18 07:25:57;;;;;;;53.80;14.07;;;;;;;4.60;100.00;103925.31;5095352;28;20100;-37
2022/01/18 07:28:22;;;;;;;51.80;14.30;;;;;;;4.59;100.00;103932.50;5094630;28;20016;-37
2022/01/18 07:30:49;;;;;;;52.92;15.98;;;;;;;4.59;100.00;103934.34;5094691;28;20058;-37
2022/01/18 07:33:15;;;;;;;42.08;13.43;;;;;;;4.53;100.00;103919.56;5094938;28;20367;-37
2022/01/18 07:35:42;;;;;;;50.17;14.57;;;;;;;4.48;100.00;103924.41;5094867;28;20029;-37
2022/01/18 07:38:09;;;;;;;40.33;13.10;;;;;;;4.61;100.00;103935.06;5094484;28;20053;-37
2022/01/18 07:40:34;;;;;;;49.88;13.63;;;;;;;4.54;100.00;103928.44;5095055;28;20032;-37
2022/01/18 07:43:01;;;;;;;47.90;14.07;;;;;;;4.57;100.00;103938.94;5094089;28;20491;-37
2022/01/18 07:45:28;;;;;;;41.45;12.27;;;;;;;4.51;100.00;103926.88;5094285;28;20588;-37
2022/01/18 07:47:54;;;;;;;42.55;12.35;;;;;;;4.57;100.00;103947.00;5093955;28;20027;-36
2022/01/18 07:50:19;;;;;;;42.58;12.65;;;;;;;4.52;100.00;103939.28;5094224;28;20510;-36
2022/01/18 07:52:45;;;;;;;47.70;11.27;;;;;;;4.54;100.00;103942.72;5094730;28;20024;-37
2022/01/18 07:55:10;;;;;;;38.77;11.93;;;;;;;4.40;100.00;103916.13;5094644;28;20105;-37
2022/01/18 07:57:42;;;;;;;33.63;11.10;;;;;;;4.38;100.00;103910.84;5094654;28;20028;-37
2022/01/18 08:00:10;;;;;;;41.08;12.23;;;;;;;4.52;100.00;103936.63;5094282;28;20035;-37
2022/01/18 08:02:37;;;;;;;33.47;11.05;;;;;;;4.58;100.00;103946.88;5093586;28;20032;-37
2022/01/18 08:05:04;;;;;;;37.97;11.20;;;;;;;4.57;100.00;103938.94;5094396;28;20028;-37
2022/01/18 08:07:29;;;;;;;30.00;10.15;;;;;;;4.59;100.00;103943.25;5093631;28;20073;-37
2022/01/18 08:09:55;;;;;;;42.42;11.07;;;;;;;4.57;100.00;103952.34;5093739;28;20040;-36
2022/01/18 08:12:21;;;;;;;36.00;12.07;;;;;;;4.60;100.00;103952.13;5094300;28;20056;-36
2022/01/18 08:14:47;;;;;;;46.20;10.57;;;;;;;4.49;100.00;103938.66;5094001;28;20482;-36
2022/01/18 08:17:13;;;;;;;34.05;10.30;;;;;;;4.57;100.00;103944.31;5093524;28;20024;-37
2022/01/18 08:19:38;;;;;;;39.20;11.63;;;;;;;4.60;100.00;103954.81;5093431;28;20029;-37
2022/01/18 08:22:04;;;;;;;35.80;10.97;;;;;;;4.59;100.00;103947.75;5093677;28;20056;-37
2022/01/18 08:24:29;;;;;;;32.63;10.75;;;;;;;4.59;100.00;103943.25;5093842;28;20123;-36
2022/01/18 08:26:55;;;;;;;30.50;10.17;;;;;;;4.63;100.00;103946.53;5094170;28;20038;-37
2022/01/18 08:29:21;;;;;;;42.88;11.55;;;;;;;4.59;100.00;103945.91;5093845;28;20020;-36
2022/01/18 08:31:47;;;;;;;30.98;10.95;;;;;;;4.56;100.00;103934.56;5093401;28;20379;-37
2022/01/18 08:34:13;;;;;;;30.83;9.90;;;;;;;4.63;100.00;103951.88;5094458;28;20497;-37
2022/01/18 08:36:38;;;;;;;;;;;;;;;4.74;100.00;103943.91;5093844;28;20465;-37
2022/01/18 08:39:05;;;;;;;28.60;10.00;;;;;;;4.66;100.00;103935.56;5093395;28;19919;-37
2022/01/18 08:41:31;;;;;;;30.33;10.40;;;;;;;4.71;100.00;103948.63;5093283;28;20031;-37
2022/01/18 08:43:57;;;;;;;38.88;11.55;;;;;;;4.62;100.00;103931.41;5093547;28;20036;-36
2022/01/18 08:46:23;;;;;;;32.43;11.07;;;;;;;4.71;100.00;103936.09;5092998;28;20035;-37
2022/01/18 08:48:49;;;;;;;29.52;10.98;;;;;;;4.72;100.00;103934.25;5093277;28;20468;-37
2022/01/18 08:51:14;;;;;;;;;;;;;;;4.82;100.00;103928.06;5093509;28;20036;-37
2022/01/18 08:53:42;;;;;;;27.10;10.32;;;;;;;4.72;100.00;103926.22;5093818;28;20033;-37
2022/01/18 08:56:08;;;;;;;27.05;10.35;;;;;;;4.80;100.00;103940.75;5093284;28;20028;-37
2022/01/18 08:58:34;;;;;;;28.45;10.65;;;;;;;4.65;100.00;103924.00;5093129;28;20020;-37
2022/01/18 09:01:02;;;;;;;31.58;10.57;;;;;;;4.69;100.00;103939.88;5092875;28;20063;-37
2022/01/18 09:03:27;;;;;;;32.63;11.25;;;;;;;4.80;100.00;103954.16;5092630;28;20024;-37
2022/01/18 09:05:53;;;;;;;30.75;10.65;;;;;;;4.73;100.00;103935.94;5093050;28;20040;-37
2022/01/18 09:08:20;;;;;;;30.70;11.20;;;;;;;4.83;100.00;103951.25;5092884;28;20025;-37
2022/01/18 09:10:47;;;;;;;32.08;10.75;;;;;;;4.79;100.00;103947.09;5093264;28;20421;-37
2022/01/18 09:13:14;;;;;;;29.90;11.73;;;;;;;4.83;100.00;103956.59;5093079;28;20129;-37
2022/01/18 09:15:40;;;;;;;29.63;11.82;;;;;;;4.89;100.00;103955.28;5093222;28;20053;-37
2022/01/18 09:18:06;;;;;;;21.75;9.63;;;;;;;4.96;100.00;103953.81;5092862;28;20035;-37
2022/01/18 09:20:31;;;;;;;33.93;12.87;;;;;;;5.00;100.00;103947.25;5093431;28;20036;-36
2022/01/18 09:22:57;;;;;;;30.33;11.60;;;;;;;4.98;100.00;103945.66;5092575;28;20434;-37
2022/01/18 09:25:28;;;;;;;26.40;10.77;;;;;;;5.02;100.00;103947.97;5092833;28;20483;-37
2022/01/18 09:27:54;;;;;;;25.52;10.90;;;;;;;5.12;100.00;103956.16;5092879;28;20032;-37
2022/01/18 09:30:20;;;;;;;;;;;;;;;5.25;100.00;103962.28;5097645;28;20032;-37
2022/01/18 09:32:47;;;;;;;32.58;12.45;;;;;;;5.21;100.00;103960.81;5095232;28;19934;-37
2022/01/18 09:35:14;;;;;;;28.90;11.77;;;;;;;5.16;100.00;103953.13;5097386;28;20028;-36
2022/01/18 09:37:40;;;;;;;31.60;11.63;;;;;;;5.21;100.00;103965.34;5096407;28;20475;-37
2022/01/18 09:40:06;;;;;;;;;;;;;;;5.31;100.00;103966.31;5097751;28;20024;-37
2022/01/18 09:42:34;;;;;;;30.73;12.02;;;;;;;5.31;100.00;103966.31;5096576;28;19918;-37
2022/01/18 09:45:04;;;;;;;35.00;13.73;;;;;;;5.32;100.00;103974.28;5096916;28;20384;-37
2022/01/18 09:47:29;;;;;;;31.80;12.30;;;;;;;5.33;100.00;103967.06;5096618;28;20210;-37
2022/01/18 09:49:58;;;;;;;37.50;14.20;;;;;;;5.36;100.00;103964.97;5096521;28;20115;-37
2022/01/18 09:52:23;;;;;;;33.75;14.07;;;;;;;5.38;100.00;103967.56;5096641;28;20395;-37
2022/01/18 09:54:49;;;;;;;38.67;15.07;;;;;;;5.31;100.00;103959.13;5096934;28;20039;-37
2022/01/18 09:57:14;;;;;;;34.97;15.33;;;;;;;5.40;100.00;103970.97;5096117;28;20520;-37
2022/01/18 09:59:40;;;;;;;32.43;14.00;;;;;;;5.49;100.00;103974.75;5096384;28;20277;-37
2022/01/18 10:02:06;;;;;;;34.70;14.33;;;;;;;5.52;100.00;103967.34;5096189;28;20034;-37
2022/01/18 10:04:39;;;;;;;32.75;14.55;;;;;;;5.56;100.00;103973.28;5096216;28;20063;-37
2022/01/18 10:07:04;;;;;;;38.70;15.07;;;;;;;5.57;100.00;103969.66;5096034;28;20110;-37
2022/01/18 10:09:30;;;;;;;32.90;12.63;;;;;;;5.66;100.00;103977.84;5096597;28;20099;-37
2022/01/18 10:12:15;;;;;;;32.97;13.18;;;;;;;5.70;100.00;103970.38;5096775;28;20024;-37
2022/01/18 10:14:43;;;;;;;27.20;12.57;;;;;;;5.66;100.00;103960.84;5096599;28;20032;-37
2022/01/18 10:17:10;;;;;;;26.98;12.90;;;;;;;5.78;100.00;103967.09;5096254;28;20024;-37
2022/01/18 10:19:43;;;;;;;30.23;13.05;;;;;;;5.82;100.00;103981.97;5096603;28;20487;-37
2022/01/18 10:22:12;;;;;;;32.17;13.88;;;;;;;5.93;100.00;103971.25;5096504;28;20048;-37
2022/01/18 10:24:38;;;;;;;27.95;12.50;;;;;;;5.98;100.00;103978.94;5095887;28;20040;-37
2022/01/18 10:27:04;;;;;;;28.75;12.88;;;;;;;6.08;100.00;103975.38;5096136;28;20415;-37
2022/01/18 10:29:31;;;;;;;;;;;;;;;6.22;100.00;103978.78;5096501;28;20099;-37
2022/01/18 10:31:59;;;;;;;27.60;11.87;;;;;;;6.23;100.00;103965.19;5095382;28;19918;-37
2022/01/18 10:34:41;;;;;;;26.33;12.23;;;;;;;6.27;100.00;103963.97;5095712;28;20032;-37
2022/01/18 10:37:14;;;;;;;30.98;13.85;;;;;;;6.34;100.00;103965.16;5096142;28;20472;-37
2022/01/18 10:39:57;;;;;;;27.85;12.32;;;;;;;6.40;100.00;103956.59;5095579;28;20027;-37
2022/01/18 10:42:30;;;;;;;27.98;12.00;;;;;;;6.43;100.00;103956.34;5095801;28;20028;-37
2022/01/18 10:45:04;;;;;;;27.45;12.93;;;;;;;6.48;100.00;103958.63;5095728;28;20035;-37
2022/01/18 10:47:31;;;;;;;28.27;12.57;;;;;;;6.36;100.00;103933.66;5094741;28;20402;-37
2022/01/18 10:49:57;;;;;;;33.05;13.00;;;;;;;6.54;100.00;103947.41;5095897;28;20039;-37
2022/01/18 10:52:26;;;;;;;29.90;12.82;;;;;;;6.58;100.00;103945.28;5095296;28;20035;-37
2022/01/18 10:54:55;;;;;;;29.45;11.48;;;;;;;6.57;100.00;103935.50;5095436;28;20024;-37
2022/01/18 10:57:36;;;;;;;29.10;11.57;;;;;;;6.64;100.00;103947.47;5095502;28;20021;-37
2022/01/18 11:00:10;;;;;;;35.95;12.52;;;;;;;6.55;100.00;103918.66;5095518;28;20035;-37
2022/01/18 11:02:40;;;;;;;28.27;12.05;;;;;;;6.70;100.00;103933.50;5095335;28;20024;-37
2022/01/18 11:05:12;;;;;;;25.42;12.02;;;;;;;6.77;100.00;103933.81;5095083;28;20032;-37
2022/01/18 11:07:38;;;;;;;28.55;10.80;;;;;;;6.86;100.00;103928.50;5094983;28;20154;-37
2022/01/18 11:10:06;;;;;;;26.08;11.52;;;;;;;6.93;100.00;103928.84;5094875;28;20479;-37
2022/01/18 11:13:04;;;;;;;30.95;11.75;;;;;;;7.01;100.00;103930.88;5095111;28;20364;-37
2022/01/18 11:15:37;;;;;;;31.25;11.68;;;;;;;7.05;100.00;103929.63;5094781;28;20024;-37
2022/01/18 11:18:07;;;;;;;30.63;11.90;;;;;;;7.01;100.00;103920.13;5094871;28;20540;-37
2022/01/18 11:20:36;;;;;;;29.00;11.18;;;;;;;7.15;100.00;103922.47;5095011;28;20051;-37
2022/01/18 11:23:05;;;;;;;26.08;11.15;;;;;;;7.29;100.00;103930.19;5094876;28;20055;-37
2022/01/18 11:25:31;;;;;;;30.90;12.38;;;;;;;7.37;100.00;103916.03;5094725;28;20044;-37
2022/01/18 11:27:58;;;;;;;27.98;10.85;;;;;;;7.52;100.00;103922.78;5094637;28;20035;-37
2022/01/18 11:30:26;;;;;;;29.88;11.98;;;;;;;7.55;99.49;103910.88;5094598;28;20089;-37
2022/01/18 11:32:54;;;;;;;27.92;11.32;;;;;;;7.77;99.96;103916.06;5095061;28;20086;-37
2022/01/18 11:35:48;;;;;;;32.08;10.57;;;;;;;7.80;98.81;103909.53;5094938;28;20027;-37
2022/01/18 11:38:25;;;;;;;33.50;12.07;;;;;;;7.83;98.62;103918.19;5094411;28;20070;-37
2022/01/18 11:40:53;;;;;;;28.02;11.10;;;;;;;7.81;97.35;103912.13;5094384;28;20028;-37
2022/01/18 11:43:41;;;;;;;27.55;10.65;;;;;;;7.86;97.65;103912.56;5094183;28;20476;-37
2022/01/18 11:46:21;;;;;;;23.73;10.30;;;;;;;7.91;98.23;103909.44;5094516;28;20028;-37
2022/01/18 11:48:48;;;;;;;24.42;9.73;;;;;;;7.81;96.93;103893.25;5094428;28;20062;-37
2022/01/18 11:51:18;;;;;;;26.92;11.00;;;;;;;7.89;95.44;103900.63;5093980;28;20110;-37
2022/01/18 11:53:45;;;;;;;25.60;10.13;;;;;;;7.85;95.21;103883.03;5094195;28;20027;-37
2022/01/18 11:56:14;;;;;;;21.98;9.38;;;;;;;7.94;95.96;103903.75;5094468;28;20111;-37
2022/01/18 11:58:40;;;;;;;27.25;9.30;;;;;;;7.87;93.55;103887.31;5094237;28;20028;-37
2022/01/18 12:01:05;;;;;;;25.50;9.55;;;;;;;7.97;94.21;103907.03;5094400;28;20077;-37
2022/01/18 12:03:42;;;;;;;26.13;8.20;;;;;;;7.93;94.18;103896.66;5093969;28;20024;-37
2022/01/18 12:06:08;;;;;;;22.25;7.43;;;;;;;7.95;92.86;103900.94;5094172;28;20056;-37
2022/01/18 12:08:33;;;;;;;23.50;7.78;;;;;;;7.95;92.74;103900.94;5093701;28;20036;-37
2022/01/18 12:11:01;;;;;;;24.73;7.23;;;;;;;7.83;92.58;103869.72;5094043;28;20122;-37
2022/01/18 12:13:40;;;;;;;23.90;7.75;;;;;;;7.98;91.65;103895.25;5093895;28;20027;-37
2022/01/18 12:16:18;;;;;;;30.48;7.57;;;;;;;7.93;92.21;103896.66;5094152;28;20063;-37
2022/01/18 12:19:10;;;;;;;22.42;7.50;;;;;;;7.82;91.49;103892.25;5093955;28;20124;-37
2022/01/18 12:21:42;;;;;;;25.85;7.05;;;;;;;7.72;92.15;103896.78;5094047;28;20375;-37
2022/01/18 12:24:19;;;;;;;23.90;7.13;;;;;;;7.70;93.43;103896.03;5092717;28;20548;-37
2022/01/18 12:26:48;;;;;;;30.67;7.80;;;;;;;7.64;92.56;103896.59;5093861;28;20449;-37
2022/01/18 12:34:31;;;;;;;20.80;7.97;;;;;;;7.53;93.48;103889.47;5093515;28;20032;-37
2022/01/18 12:37:27;;;;;;;26.50;8.32;;;;;;;7.57;92.76;103882.00;5093585;28;20093;-37